地図

経路データ

SID SEASON NUMBER BASIN SUBBASIN NAME ISO_TIME NATURE LAT LON WMO_WIND WMO_PRES WMO_AGENCY TRACK_TYPE DIST2LAND LANDFALL IFLAG USA_AGENCY USA_ATCF_ID USA_LAT USA_LON USA_RECORD USA_STATUS USA_WIND USA_PRES USA_SSHS USA_R34_NE USA_R34_SE USA_R34_SW USA_R34_NW USA_R50_NE USA_R50_SE USA_R50_SW USA_R50_NW USA_R64_NE USA_R64_SE USA_R64_SW USA_R64_NW USA_POCI USA_ROCI USA_RMW USA_EYE TOKYO_LAT TOKYO_LON TOKYO_GRADE TOKYO_WIND TOKYO_PRES TOKYO_R50_DIR TOKYO_R50_LONG TOKYO_R50_SHORT TOKYO_R30_DIR TOKYO_R30_LONG TOKYO_R30_SHORT TOKYO_LAND CMA_LAT CMA_LON CMA_CAT CMA_WIND CMA_PRES HKO_LAT HKO_LON HKO_CAT HKO_WIND HKO_PRES NEWDELHI_LAT NEWDELHI_LON NEWDELHI_GRADE NEWDELHI_WIND NEWDELHI_PRES NEWDELHI_CI NEWDELHI_DP NEWDELHI_POCI REUNION_LAT REUNION_LON REUNION_TYPE REUNION_WIND REUNION_PRES REUNION_TNUM REUNION_CI REUNION_RMW REUNION_R34_NE REUNION_R34_SE REUNION_R34_SW REUNION_R34_NW REUNION_R50_NE REUNION_R50_SE REUNION_R50_SW REUNION_R50_NW REUNION_R64_NE REUNION_R64_SE REUNION_R64_SW REUNION_R64_NW BOM_LAT BOM_LON BOM_TYPE BOM_WIND BOM_PRES BOM_TNUM BOM_CI BOM_RMW BOM_R34_NE BOM_R34_SE BOM_R34_SW BOM_R34_NW BOM_R50_NE BOM_R50_SE BOM_R50_SW BOM_R50_NW BOM_R64_NE BOM_R64_SE BOM_R64_SW BOM_R64_NW BOM_ROCI BOM_POCI BOM_EYE BOM_POS_METHOD BOM_PRES_METHOD NADI_LAT NADI_LON NADI_CAT NADI_WIND NADI_PRES WELLINGTON_LAT WELLINGTON_LON WELLINGTON_WIND WELLINGTON_PRES DS824_LAT DS824_LON DS824_STAGE DS824_WIND DS824_PRES TD9636_LAT TD9636_LON TD9636_STAGE TD9636_WIND TD9636_PRES TD9635_LAT TD9635_LON TD9635_WIND TD9635_PRES TD9635_ROCI NEUMANN_LAT NEUMANN_LON NEUMANN_CLASS NEUMANN_WIND NEUMANN_PRES MLC_LAT MLC_LON MLC_CLASS MLC_WIND MLC_PRES USA_GUST BOM_GUST BOM_GUST_PER REUNION_GUST REUNION_GUST_PER USA_SEAHGT USA_SEARAD_NE USA_SEARAD_SE USA_SEARAD_SW USA_SEARAD_NW STORM_SPEED STORM_DIR
1852021S14075 1852 3 SI MM NOT_NAMED 1852-01-21 06:00:00 NR -13.8000 75.2500 reunion main 1996 1971 _____O____O___ -1 -13.6000 75.6000 99 9.90000 -14.0000 74.9000 7 5 240
1852021S14075 1852 3 SI MM NOT_NAMED 1852-01-21 09:00:00 NR -13.9142 75.0412 main 1961 1937 _____P____P___ -1 -13.6561 75.5115 99 -14.1724 74.5709 7 5 241
1852021S14075 1852 3 SI MM NOT_NAMED 1852-01-21 12:00:00 NR -14.0242 74.8369 main 1937 1923 _____P____P___ -1 -13.7128 75.4207 99 -14.3356 74.2532 7 4 241
1852021S14075 1852 3 SI MM NOT_NAMED 1852-01-21 15:00:00 NR -14.1259 74.6421 main 1913 1899 _____P____P___ -1 -13.7707 75.3253 99 -14.4810 73.9589 7 4 242
1852021S14075 1852 3 SI MM NOT_NAMED 1852-01-21 18:00:00 NR -14.2152 74.4615 main 1899 1874 _____P____O___ -1 -13.8304 75.2230 99 -14.6000 73.7000 7 4 244
1852021S14075 1852 3 SI MM NOT_NAMED 1852-01-21 21:00:00 NR -14.2903 74.2966 main 1874 1850 _____P____P___ -1 -13.8926 75.1117 99 -14.6880 73.4815 7 3 246
1852021S14075 1852 3 SI MM NOT_NAMED 1852-01-22 00:00:00 NR -14.3574 74.1342 main 1850 1840 _____P____P___ -1 -13.9579 74.9889 99 -14.7569 73.2795 7 4 248
1852021S14075 1852 3 SI MM NOT_NAMED 1852-01-22 03:00:00 NR -14.4246 73.9576 main 1840 1816 _____P____P___ -1 -14.0268 74.8524 99 -14.8223 73.0627 7 4 249
1852021S14075 1852 3 SI MM NOT_NAMED 1852-01-22 06:00:00 NR -14.5000 73.7500 reunion main 1816 1782 _____O____O___ -1 -14.1000 74.7000 99 9.90000 -14.9000 72.8000 7 5 249
1852021S14075 1852 3 SI MM NOT_NAMED 1852-01-22 09:00:00 NR -14.5923 73.4959 main 1782 1748 _____P____P___ -1 -14.1780 74.5294 99 -15.0066 72.4624 7 6 250
1852021S14075 1852 3 SI MM NOT_NAMED 1852-01-22 12:00:00 NR -14.6944 73.2070 main 1748 1714 _____P____P___ -1 -14.2614 74.3392 99 -15.1274 72.0749 7 6 250
1852021S14075 1852 3 SI MM NOT_NAMED 1852-01-22 15:00:00 NR -14.8051 72.8888 main 1714 1680 _____P____P___ -1 -14.3506 74.1277 99 -15.2596 71.6498 7 7 250
1852021S14075 1852 3 SI MM NOT_NAMED 1852-01-22 18:00:00 NR -14.9231 72.5468 main 1670 1636 _____P____O___ -1 -14.4461 73.8936 99 -15.4000 71.2000 7 7 250
1852021S14075 1852 3 SI MM NOT_NAMED 1852-01-22 21:00:00 NR -15.0476 72.1909 main 1636 1587 _____P____P___ -1 -14.5483 73.6353 99 -15.5468 70.7466 7 8 250
1852021S14075 1852 3 SI MM NOT_NAMED 1852-01-23 00:00:00 NR -15.1788 71.8119 main 1587 1544 _____P____P___ -1 -14.6578 73.3513 99 -15.6999 70.2725 7 8 250
1852021S14075 1852 3 SI MM NOT_NAMED 1852-01-23 03:00:00 NR -15.3139 71.4136 main 1544 1500 _____P____P___ -1 -14.7749 73.0400 99 -15.8530 69.7872 7 8 251
1852021S14075 1852 3 SI MM NOT_NAMED 1852-01-23 06:00:00 NR -15.4500 71.0000 reunion main 1500 1452 _____O____O___ -1 -14.9000 72.7000 99 9.90000 -16.0000 69.3000 7 8 252
1852021S14075 1852 3 SI MM NOT_NAMED 1852-01-23 09:00:00 NR -15.5774 70.5920 main 1452 1408 _____P____P___ -1 -15.0313 72.3474 99 -16.1236 68.8367 7 8 252
1852021S14075 1852 3 SI MM NOT_NAMED 1852-01-23 12:00:00 NR -15.7064 70.1684 main 1408 1364 _____P____P___ -1 -15.1710 71.9649 99 -16.2418 68.3718 7 9 252
1852021S14075 1852 3 SI MM NOT_NAMED 1852-01-23 15:00:00 NR -15.8408 69.7257 main 1354 1306 _____P____P___ -1 -15.3175 71.5554 99 -16.3641 67.8960 7 9 252
1852021S14075 1852 3 SI MM NOT_NAMED 1852-01-23 18:00:00 NR -15.9847 69.2608 main 1306 1253 _____P____O___ -1 -15.4694 71.1217 99 -16.5000 67.4000 7 10 252
1852021S14075 1852 3 SI MM NOT_NAMED 1852-01-23 21:00:00 NR -16.1471 68.7509 main 1253 1195 _____P____P___ -1 -15.6250 70.6665 99 -16.6692 66.8354 7 11 252
1852021S14075 1852 3 SI MM NOT_NAMED 1852-01-24 00:00:00 NR -16.3168 68.2241 main 1185 1127 _____P____P___ -1 -15.7830 70.1926 99 -16.8507 66.2556 7 11 251
1852021S14075 1852 3 SI MM NOT_NAMED 1852-01-24 03:00:00 NR -16.4868 67.7004 main 1127 1074 _____P____P___ -1 -15.9418 69.7028 99 -17.0317 65.6979 7 10 251
1852021S14075 1852 3 SI MM NOT_NAMED 1852-01-24 06:00:00 NR -16.6500 67.2000 reunion main 1074 1026 _____O____O___ -1 -16.1000 69.2000 99 9.90000 -17.2000 65.2000 7 10 251
1852021S14075 1852 3 SI MM NOT_NAMED 1852-01-24 09:00:00 NR -16.7892 66.7597 main 1026 982 _____P____P___ -1 -16.2359 68.7136 99 -17.3426 64.8058 7 9 252
1852021S14075 1852 3 SI MM NOT_NAMED 1852-01-24 12:00:00 NR -16.9208 66.3434 main 973 939 _____P____P___ -1 -16.3701 68.2122 99 -17.4715 64.4745 7 8 252
1852021S14075 1852 3 SI MM NOT_NAMED 1852-01-24 15:00:00 NR -17.0477 65.9386 main 929 891 _____P____P___ -1 -16.5056 67.6962 99 -17.5897 64.1809 7 8 252
1852021S14075 1852 3 SI MM NOT_NAMED 1852-01-24 18:00:00 NR -17.1726 65.5328 main 881 838 _____P____O___ -1 -16.6452 67.1656 99 -17.7000 63.9000 7 8 253
1852021S14075 1852 3 SI MM NOT_NAMED 1852-01-24 21:00:00 NR -17.2951 65.1126 main 838 795 _____P____P___ -1 -16.7915 66.6206 99 -17.7987 63.6047 7 8 253
1852021S14075 1852 3 SI MM NOT_NAMED 1852-01-25 00:00:00 NR -17.4198 64.6879 main 795 752 _____P____P___ -1 -16.9476 66.0614 99 -17.8920 63.3145 7 9 253
1852021S14075 1852 3 SI MM NOT_NAMED 1852-01-25 03:00:00 NR -17.5527 64.2525 main 747 694 _____P____P___ -1 -17.1161 65.4878 99 -17.9893 63.0171 7 9 252
1852021S14075 1852 3 SI MM NOT_NAMED 1852-01-25 06:00:00 NR -17.7000 63.8000 reunion main 694 637 _____O____O___ -1 -17.3000 64.9000 99 9.90000 -18.1000 62.7000 7 10 251
1852021S14075 1852 3 SI MM NOT_NAMED 1852-01-25 09:00:00 NR -17.8616 63.2962 main 637 584 _____P____P___ -1 -17.4834 64.2579 99 -18.2398 62.3345 7 10 251
1852021S14075 1852 3 SI MM NOT_NAMED 1852-01-25 12:00:00 NR -18.0358 62.7719 main 584 527 _____P____P___ -1 -17.6789 63.5935 99 -18.3927 61.9502 7 11 250
1852021S14075 1852 3 SI MM NOT_NAMED 1852-01-25 15:00:00 NR -18.2186 62.2422 main 518 470 _____P____P___ -1 -17.8879 62.9187 99 -18.5492 61.5658 7 11 250
1852021S14075 1852 3 SI MM NOT_NAMED 1852-01-25 18:00:00 NR -18.4061 61.7226 main 460 413 _____P____O___ -1 -18.1122 62.2452 99 -18.7000 61.2000 7 10 249
1852021S14075 1852 3 SI MM NOT_NAMED 1852-01-25 21:00:00 NR -18.5803 61.2433 main 403 356 _____P____P___ -1 -18.3535 61.5847 99 -18.8072 60.9020 7 10 248
1852021S14075 1852 3 SI MM NOT_NAMED 1852-01-26 00:00:00 NR -18.7627 60.7852 main 356 308 _____P____P___ -1 -18.6138 60.9491 99 -18.9116 60.6212 7 9 246
1852021S14075 1852 3 SI MM NOT_NAMED 1852-01-26 03:00:00 NR -18.9652 60.3401 main 298 251 _____P____P___ -1 -18.8952 60.3502 99 -19.0352 60.3299 7 9 242
1852021S14075 1852 3 SI MM NOT_NAMED 1852-01-26 06:00:00 NR -19.2000 59.9000 reunion main 251 194 _____O____O___ -1 -19.2000 59.8000 99 9.90000 -19.2000 60.0000 7 10 240
1852021S14075 1852 3 SI MM NOT_NAMED 1852-01-26 09:00:00 NR -19.4651 59.4209 main 189 142 _____P____P___ -1 -19.5261 59.2809 99 -19.4041 59.5609 7 11 238
1852021S14075 1852 3 SI MM NOT_NAMED 1852-01-26 12:00:00 NR -19.7656 58.9435 main 127 76 _____P____P___ -1 -19.8778 58.8016 99 -19.6535 59.0854 7 11 234
1852021S14075 1852 3 SI MM NOT_NAMED 1852-01-26 15:00:00 NR -20.1010 58.4908 main 76 33 _____P____P___ -1 -20.2511 58.3644 99 -19.9510 58.6171 7 11 229
1852021S14075 1852 3 SI MM NOT_NAMED 1852-01-26 18:00:00 NR -20.4710 58.0859 main 38 23 _____P____O___ -1 -20.6419 57.9718 99 -20.3000 58.2000 7 10 222
1852021S14075 1852 3 SI MM NOT_NAMED 1852-01-26 21:00:00 NR -20.8748 57.7432 main 44 44 _____P____P___ -1 -21.0463 57.6263 99 -20.7033 57.8602 7 10 215
1852021S14075 1852 3 SI MM NOT_NAMED 1852-01-27 00:00:00 NR -21.3074 57.4555 main 89 89 _____P____P___ -1 -21.4602 57.3306 99 -21.1546 57.5804 7 10 209
1852021S14075 1852 3 SI MM NOT_NAMED 1852-01-27 03:00:00 NR -21.7540 57.2239 main 145 145 _____P____P___ -1 -21.8795 57.0875 99 -21.6285 57.3603 7 10 203
1852021S14075 1852 3 SI MM NOT_NAMED 1852-01-27 06:00:00 NR -22.2000 57.0500 reunion main 167 159 _____O____O___ -1 -22.3000 56.9000 99 9.90000 -22.1000 57.2000 7 9 198
1852021S14075 1852 3 SI MM NOT_NAMED 1852-01-27 09:00:00 NR -22.6130 56.9136 main 184 184 _____P____P___ -1 -22.6980 56.7476 99 -22.5279 57.0796 7 9 194
1852021S14075 1852 3 SI MM NOT_NAMED 1852-01-27 12:00:00 NR -23.0250 56.8360 main 216 216 _____P____P___ -1 -23.1003 56.6553 99 -22.9497 57.0167 7 8 187
1852021S14075 1852 3 SI MM NOT_NAMED 1852-01-27 15:00:00 NR -23.4393 56.8052 main 255 255 _____P____P___ -1 -23.5068 56.6149 99 -23.3717 56.9955 7 8 0
1852021S14075 1852 3 SI MM NOT_NAMED 1852-01-27 18:00:00 NR -23.8588 56.8091 main 305 305 _____P____O___ -1 -23.9176 56.6181 99 -23.8000 57.0000 7 9 178
1852021S14075 1852 3 SI MM NOT_NAMED 1852-01-27 21:00:00 NR -24.2856 56.8240 main 346 346 _____P____P___ -1 -24.3324 56.6567 99 -24.2387 56.9913 7 9 176
1852021S14075 1852 3 SI MM NOT_NAMED 1852-01-28 00:00:00 NR -24.7181 56.8637 main 392 392 _____P____P___ -1 -24.7512 56.7223 99 -24.6850 57.0052 7 9 174
1852021S14075 1852 3 SI MM NOT_NAMED 1852-01-28 03:00:00 NR -25.1562 56.9238 main 444 444 _____P____P___ -1 -25.1737 56.8062 99 -25.1387 57.0415 7 9 172
1852021S14075 1852 3 SI MM NOT_NAMED 1852-01-28 06:00:00 NR -25.6000 57.0000 reunion main 490 490 _____O____O___ -1 -25.6000 56.9000 99 9.90000 -25.6000 57.1000 7 9 172
1852021S14075 1852 3 SI MM NOT_NAMED 1852-01-28 09:00:00 NR -26.0800 57.0706 main 546 546 _____P____P___ -1 -26.0760 56.9669 99 -26.0840 57.1742 7 10 172
1852021S14075 1852 3 SI MM NOT_NAMED 1852-01-28 12:00:00 NR -26.5673 57.1607 main 603 603 _____P____P___ -1 -26.5621 57.0517 99 -26.5725 57.2698 7 10 170
1852021S14075 1852 3 SI MM NOT_NAMED 1852-01-28 15:00:00 NR -27.0488 57.2653 main 649 649 _____P____P___ -1 -27.0478 57.1501 99 -27.0497 57.3805 7 10 168
1852021S14075 1852 3 SI MM NOT_NAMED 1852-01-28 18:00:00 NR -27.5113 57.3791 main 705 705 _____P____O___ -1 -27.5226 57.2582 99 -27.5000 57.5000 7 9 167
1852021S14075 1852 3 SI MM NOT_NAMED 1852-01-28 21:00:00 NR -27.9440 57.4972 main 751 751 _____P____P___ -1 -27.9757 57.3716 99 -27.9122 57.6227 7 9 167
1852021S14075 1852 3 SI MM NOT_NAMED 1852-01-29 00:00:00 NR -28.3521 57.5980 main 807 807 _____P____P___ -1 -28.3967 57.4861 99 -28.2926 57.7471 7 8 168
1852021S14075 1852 3 SI MM NOT_NAMED 1852-01-29 03:00:00 NR -28.7339 57.6891 main 842 842 _____P____P___ -1 -28.7750 57.5971 99 -28.6516 57.8730 7 7 169
1852021S14075 1852 3 SI MM NOT_NAMED 1852-01-29 06:00:00 NR -29.0800 57.7600 reunion main 888 888 _____O____O___ -1 -29.1000 57.7000 99 9.90000 -29.0000 58.0000 7 6 172
1852021S14075 1852 3 SI MM NOT_NAMED 1852-01-29 09:00:00 NR -29.3643 57.7912 main 920 920 _____P________ -1 -29.3643 57.7912 99 7 5 169
1852021S14075 1852 3 SI MM NOT_NAMED 1852-01-29 12:00:00 NR -29.5729 57.8710 main 944 944 _____P________ -1 -29.5729 57.8710 99 7 4 161
1852021S14075 1852 3 SI MM NOT_NAMED 1852-01-29 15:00:00 NR -29.7337 57.9411 main 955 955 _____P________ -1 -29.7337 57.9411 99 7 3 158
1852021S14075 1852 3 SI MM NOT_NAMED 1852-01-29 18:00:00 NR -29.8547 58.0029 main 979 979 _____P________ -1 -29.8547 58.0029 99 2 154
1852021S14075 1852 3 SI MM NOT_NAMED 1852-01-29 21:00:00 NR -29.9438 58.0580 main 981 981 _____P________ -1 -29.9438 58.0580 99 2 151
1852021S14075 1852 3 SI MM NOT_NAMED 1852-01-30 00:00:00 NR -30.0091 58.1081 main 992 992 _____P________ -1 -30.0091 58.1081 99 1 147
1852021S14075 1852 3 SI MM NOT_NAMED 1852-01-30 03:00:00 NR -30.0585 58.1549 main 1005 1005 _____P________ -1 -30.0585 58.1549 99 1 140
1852021S14075 1852 3 SI MM NOT_NAMED 1852-01-30 06:00:00 NR -30.1000 58.2000 reunion main 1005 _____O________ -1 -30.1000 58.2000 99 9.90000 1 138

IBTrACS Databaseについて

本データベースは、米国NOAAが公開する1842年以降の世界の熱帯低気圧のベストトラックデータアーカイブInternational Best Track Archive for Climate Stewardship (IBTrACS)を、ウェブで閲覧しやすい形式に変換したものです。

最終更新日:2021-11-26